sensor_id;sensor_type;location;lat;lon;timestamp;pressure;altitude;pressure_sealevel;temperature;humidity
17950;BME280;9100;48.700;9.316;2024-02-23T00:00:19;95783.1;;;8.45;100
17950;BME280;9100;48.700;9.316;2024-02-23T00:01:19;95781.9;;;8.48;100
17950;BME280;9100;48.700;9.316;2024-02-23T00:02:19;95792.1;;;8.48;100
17950;BME280;9100;48.700;9.316;2024-02-23T00:03:19;95790.5;;;8.47;100
17950;BME280;9100;48.700;9.316;2024-02-23T00:03:34;95791.3;;;8.47;100
17950;BME280;9100;48.700;9.316;2024-02-23T00:04:19;95791.3;;;8.47;100
17950;BME280;9100;48.700;9.316;2024-02-23T00:05:19;95791.3;;;8.47;100
17950;BME280;9100;48.700;9.316;2024-02-23T00:06:19;95800.7;;;8.47;100
17950;BME280;9100;48.700;9.316;2024-02-23T00:07:19;95795.6;;;8.47;100
17950;BME280;9100;48.700;9.316;2024-02-23T00:08:19;95796.6;;;8.46;100
17950;BME280;9100;48.700;9.316;2024-02-23T00:08:35;95790.7;;;8.45;100
17950;BME280;9100;48.700;9.316;2024-02-23T00:09:19;95798.40000000001;;;8.45;100
17950;BME280;9100;48.700;9.316;2024-02-23T00:10:19;95800.2;;;8.45;100
17950;BME280;9100;48.700;9.316;2024-02-23T00:11:19;95807;;;8.44;100
17950;BME280;9100;48.700;9.316;2024-02-23T00:12:19;95811.1;;;8.45;100
17950;BME280;9100;48.700;9.316;2024-02-23T00:13:19;95808.6;;;8.45;100
17950;BME280;9100;48.700;9.316;2024-02-23T00:13:34;95810.40000000001;;;8.45;100
17950;BME280;9100;48.700;9.316;2024-02-23T00:14:19;95807;;;8.44;100
17950;BME280;9100;48.700;9.316;2024-02-23T00:15:19;95800.2;;;8.45;100
17950;BME280;9100;48.700;9.316;2024-02-23T00:16:19;95802.70000000001;;;8.45;100
17950;BME280;9100;48.700;9.316;2024-02-23T00:17:19;95797.40000000001;;;8.46;100
17950;BME280;9100;48.700;9.316;2024-02-23T00:18:19;95800;;;8.46;100
17950;BME280;9100;48.700;9.316;2024-02-23T00:18:34;95797.40000000001;;;8.46;100
17950;BME280;9100;48.700;9.316;2024-02-23T00:19:19;95808.2;;;8.48;100
17950;BME280;9100;48.700;9.316;2024-02-23T00:20:19;95813.3;;;8.48;100
17950;BME280;9100;48.700;9.316;2024-02-23T00:21:19;95825;;;8.49;100
17950;BME280;9100;48.700;9.316;2024-02-23T00:22:19;95825.8;;;8.5;100
17950;BME280;9100;48.700;9.316;2024-02-23T00:23:19;95832.6;;;8.49;100
17950;BME280;9100;48.700;9.316;2024-02-23T00:23:34;95838;;;8.48;100
17950;BME280;9100;48.700;9.316;2024-02-23T00:24:19;95840.3;;;8.49;100
17950;BME280;9100;48.700;9.316;2024-02-23T00:25:19;95839.70000000001;;;8.47;100
17950;BME280;9100;48.700;9.316;2024-02-23T00:26:19;95843.5;;;8.45;100
17950;BME280;9100;48.700;9.316;2024-02-23T00:27:19;95848;;;8.43;100
17950;BME280;9100;48.700;9.316;2024-02-23T00:28:19;95850.7;;;8.41;100
17950;BME280;9100;48.700;9.316;2024-02-23T00:28:34;95852.5;;;8.41;100
17950;BME280;9100;48.700;9.316;2024-02-23T00:29:19;95845.8;;;8.4;100
17950;BME280;9100;48.700;9.316;2024-02-23T00:30:19;95849.40000000001;;;8.39;100
17950;BME280;9100;48.700;9.316;2024-02-23T00:31:19;95852.09999999999;;;8.37;100
17950;BME280;9100;48.700;9.316;2024-02-23T00:32:19;95848.6;;;8.38;100
17950;BME280;9100;48.700;9.316;2024-02-23T00:33:19;95847.40000000001;;;8.34;100
17950;BME280;9100;48.700;9.316;2024-02-23T00:33:34;95842.4;;;8.34;100
17950;BME280;9100;48.700;9.316;2024-02-23T00:34:19;95847.40000000001;;;8.34;100
17950;BME280;9100;48.700;9.316;2024-02-23T00:35:19;95847.40000000001;;;8.34;100
17950;BME280;9100;48.700;9.316;2024-02-23T00:36:19;95862.7;;;8.34;100
17950;BME280;9100;48.700;9.316;2024-02-23T00:37:19;95870.4;;;8.34;100
17950;BME280;9100;48.700;9.316;2024-02-23T00:38:19;95879.8;;;8.34;100
17950;BME280;9100;48.700;9.316;2024-02-23T00:38:34;95868.8;;;8.33;100
17950;BME280;9100;48.700;9.316;2024-02-23T00:39:19;95877.3;;;8.34;100
17950;BME280;9100;48.700;9.316;2024-02-23T00:40:19;95877.3;;;8.34;100
17950;BME280;9100;48.700;9.316;2024-02-23T00:41:19;95879;;;8.33;100
17950;BME280;9100;48.700;9.316;2024-02-23T00:42:19;95870.6;;;8.33;100
17950;BME280;9100;48.700;9.316;2024-02-23T00:43:19;95866.7;;;8.3;100
17950;BME280;9100;48.700;9.316;2024-02-23T00:43:37;95867.5;;;8.31;100
17950;BME280;9100;48.700;9.316;2024-02-23T00:44:19;95865.9;;;8.3;100
17950;BME280;9100;48.700;9.316;2024-02-23T00:45:19;95868.6;;;8.28;100
17950;BME280;9100;48.700;9.316;2024-02-23T00:46:19;95871.6;;;8.25;100
17950;BME280;9100;48.700;9.316;2024-02-23T00:47:19;95864.9;;;8.24;100
17950;BME280;9100;48.700;9.316;2024-02-23T00:48:19;95869.2;;;8.23;100
17950;BME280;9100;48.700;9.316;2024-02-23T00:48:34;95876.09999999999;;;8.23;100
17950;BME280;9100;48.700;9.316;2024-02-23T00:49:19;95867.5;;;8.24;100
17950;BME280;9100;48.700;9.316;2024-02-23T00:50:19;95867.5;;;8.24;100
17950;BME280;9100;48.700;9.316;2024-02-23T00:51:19;95861.8;;;8.22;100
17950;BME280;9100;48.700;9.316;2024-02-23T00:52:19;95859.3;;;8.22;100
17950;BME280;9100;48.700;9.316;2024-02-23T00:53:19;95861.2;;;8.2;100
17950;BME280;9100;48.700;9.316;2024-02-23T00:53:34;95857.9;;;8.19;100
17950;BME280;9100;48.700;9.316;2024-02-23T00:54:19;95859.7;;;8.19;100
17950;BME280;9100;48.700;9.316;2024-02-23T00:55:19;95860.7;;;8.18;100
17950;BME280;9100;48.700;9.316;2024-02-23T00:56:19;95865.8;;;8.18;100
17950;BME280;9100;48.700;9.316;2024-02-23T00:57:19;95870.3;;;8.16;100
17950;BME280;9100;48.700;9.316;2024-02-23T00:58:19;95866.6;;;8.12;100
17950;BME280;9100;48.700;9.316;2024-02-23T00:58:34;95866.6;;;8.12;100
17950;BME280;9100;48.700;9.316;2024-02-23T00:59:19;95870.7;;;8.13;100
17950;BME280;9100;48.700;9.316;2024-02-23T01:00:19;95874.2;;;8.12;100
17950;BME280;9100;48.700;9.316;2024-02-23T01:01:19;95877.8;;;8.11;100
17950;BME280;9100;48.700;9.316;2024-02-23T01:02:19;95877.8;;;8.11;100
17950;BME280;9100;48.700;9.316;2024-02-23T01:03:19;95875.40000000001;;;8.09;100
17950;BME280;9100;48.700;9.316;2024-02-23T01:03:34;95883.2;;;8.08;100
17950;BME280;9100;48.700;9.316;2024-02-23T01:04:19;95882.9;;;8.11;100
17950;BME280;9100;48.700;9.316;2024-02-23T01:05:19;95885.2;;;8.12;100
17950;BME280;9100;48.700;9.316;2024-02-23T01:06:19;95881.7;;;8.13;100
17950;BME280;9100;48.700;9.316;2024-02-23T01:07:19;95891.09999999999;;;8.13;100
17950;BME280;9100;48.700;9.316;2024-02-23T01:08:19;95891.09999999999;;;8.13;100
17950;BME280;9100;48.700;9.316;2024-02-23T01:08:34;95888.7;;;8.11;100
17950;BME280;9100;48.700;9.316;2024-02-23T01:09:19;95885.40000000001;;;8.11;100
17950;BME280;9100;48.700;9.316;2024-02-23T01:10:19;95893;;;8.11;100
17950;BME280;9100;48.700;9.316;2024-02-23T01:11:19;95875.5;;;8.03;100
17950;BME280;9100;48.700;9.316;2024-02-23T01:12:19;95883.5;;;8.06;100
17950;BME280;9100;48.700;9.316;2024-02-23T01:13:19;95887.2;;;8.04;100
17950;BME280;9100;48.700;9.316;2024-02-23T01:13:34;95891.5;;;8.03;100
17950;BME280;9100;48.700;9.316;2024-02-23T01:14:19;95890;;;8.02;100
17950;BME280;9100;48.700;9.316;2024-02-23T01:15:19;95900.3;;;8.01;100
17950;BME280;9100;48.700;9.316;2024-02-23T01:16:19;95895.5;;;7.99;100
17950;BME280;9100;48.700;9.316;2024-02-23T01:17:19;95894.3;;;7.95;100
17950;BME280;9100;48.700;9.316;2024-02-23T01:18:19;95892;;;7.94;100
17950;BME280;9100;48.700;9.316;2024-02-23T01:18:34;95895.3;;;7.94;100
17950;BME280;9100;48.700;9.316;2024-02-23T01:19:19;95882.8;;;7.93;100
17950;BME280;9100;48.700;9.316;2024-02-23T01:20:19;95884.5;;;7.92;100
17950;BME280;9100;48.700;9.316;2024-02-23T01:21:19;95873;;;7.9;100
17950;BME280;9100;48.700;9.316;2024-02-23T01:22:19;95866.4;;;7.89;100
17950;BME280;9100;48.700;9.316;2024-02-23T01:23:19;95866.5;;;7.87;100
17950;BME280;9100;48.700;9.316;2024-02-23T01:23:34;95862.40000000001;;;7.86;100
17950;BME280;9100;48.700;9.316;2024-02-23T01:24:19;95859.90000000001;;;7.86;100
17950;BME280;9100;48.700;9.316;2024-02-23T01:25:19;95854;;;7.86;100
17950;BME280;9100;48.700;9.316;2024-02-23T01:26:19;95857.6;;;7.85;100
17950;BME280;9100;48.700;9.316;2024-02-23T01:27:19;95861.7;;;7.86;100
17950;BME280;9100;48.700;9.316;2024-02-23T01:28:19;95859.1;;;7.86;100
17950;BME280;9100;48.700;9.316;2024-02-23T01:28:34;95859.5;;;7.83;100
17950;BME280;9100;48.700;9.316;2024-02-23T01:29:19;95868.2;;;7.82;100
17950;BME280;9100;48.700;9.316;2024-02-23T01:30:19;95864.8;;;7.81;100
17950;BME280;9100;48.700;9.316;2024-02-23T01:31:19;95871.3;;;7.77;100
17950;BME280;9100;48.700;9.316;2024-02-23T01:32:19;95870.7;;;7.75;100
17950;BME280;9100;48.700;9.316;2024-02-23T01:33:19;95878.59999999999;;;7.73;100
17950;BME280;9100;48.700;9.316;2024-02-23T01:33:34;95869.4;;;7.72;100
17950;BME280;9100;48.700;9.316;2024-02-23T01:34:19;95872.1;;;7.71;100
17950;BME280;9100;48.700;9.316;2024-02-23T01:35:19;95872.29999999999;;;7.69;100
17950;BME280;9100;48.700;9.316;2024-02-23T01:36:19;95872.5;;;7.68;100
17950;BME280;9100;48.700;9.316;2024-02-23T01:37:19;95882.7;;;7.68;100
17950;BME280;9100;48.700;9.316;2024-02-23T01:38:19;95882;;;7.61;100
17950;BME280;9100;48.700;9.316;2024-02-23T01:38:34;95877;;;7.59;100
17950;BME280;9100;48.700;9.316;2024-02-23T01:39:19;95879.6;;;7.59;100
17950;BME280;9100;48.700;9.316;2024-02-23T01:40:19;95877;;;7.59;100
17950;BME280;9100;48.700;9.316;2024-02-23T01:41:19;95878.09999999999;;;7.58;100
17950;BME280;9100;48.700;9.316;2024-02-23T01:42:19;95877.5;;;7.56;100
17950;BME280;9100;48.700;9.316;2024-02-23T01:43:19;95873.40000000001;;;7.55;100
17950;BME280;9100;48.700;9.316;2024-02-23T01:43:34;95876.9;;;7.54;100
17950;BME280;9100;48.700;9.316;2024-02-23T01:44:19;95865.20000000001;;;7.53;100
17950;BME280;9100;48.700;9.316;2024-02-23T01:45:19;95872;;;7.53;100
17950;BME280;9100;48.700;9.316;2024-02-23T01:46:19;95880.8;;;7.5;100
17950;BME280;9100;48.700;9.316;2024-02-23T01:47:19;95875.40000000001;;;7.47;100
17950;BME280;9100;48.700;9.316;2024-02-23T01:48:19;95876.59999999999;;;7.44;100
17950;BME280;9100;48.700;9.316;2024-02-23T01:48:35;95879.9;;;7.45;100
17950;BME280;9100;48.700;9.316;2024-02-23T01:49:19;95881.6;;;7.44;100
17950;BME280;9100;48.700;9.316;2024-02-23T01:50:19;95881.6;;;7.44;100
17950;BME280;9100;48.700;9.316;2024-02-23T01:51:19;95878.5;;;7.42;100
17950;BME280;9100;48.700;9.316;2024-02-23T01:52:19;95876.8;;;7.43;100
17950;BME280;9100;48.700;9.316;2024-02-23T01:53:19;95879.9;;;7.38;100
17950;BME280;9100;48.700;9.316;2024-02-23T01:53:34;95872.29999999999;;;7.38;100
17950;BME280;9100;48.700;9.316;2024-02-23T01:54:19;95880.1;;;7.37;100
17950;BME280;9100;48.700;9.316;2024-02-23T01:55:19;95879.7;;;7.33;100
17950;BME280;9100;48.700;9.316;2024-02-23T01:56:19;95874.8;;;7.31;100
17950;BME280;9100;48.700;9.316;2024-02-23T01:57:19;95873.5;;;7.29;100
17950;BME280;9100;48.700;9.316;2024-02-23T01:58:19;95877.8;;;7.28;100
17950;BME280;9100;48.700;9.316;2024-02-23T01:58:34;95875.40000000001;;;7.27;100
17950;BME280;9100;48.700;9.316;2024-02-23T01:59:19;95875.8;;;7.24;100
17950;BME280;9100;48.700;9.316;2024-02-23T02:00:19;95885;;;7.25;100
17950;BME280;9100;48.700;9.316;2024-02-23T02:01:19;95887;;;7.23;100
17950;BME280;9100;48.700;9.316;2024-02-23T02:02:19;95882.9;;;7.22;100
17950;BME280;9100;48.700;9.316;2024-02-23T02:03:19;95887;;;7.16;100
17950;BME280;9100;48.700;9.316;2024-02-23T02:03:34;95889.70000000001;;;7.15;100
17950;BME280;9100;48.700;9.316;2024-02-23T02:04:19;95885.7;;;7.14;100
17950;BME280;9100;48.700;9.316;2024-02-23T02:05:19;95891.7;;;7.13;100
17950;BME280;9100;48.700;9.316;2024-02-23T02:06:19;95896.2;;;7.11;100
17950;BME280;9100;48.700;9.316;2024-02-23T02:07:19;95885.5;;;7.09;100
17950;BME280;9100;48.700;9.316;2024-02-23T02:08:19;95889.4;;;7.05;100
17950;BME280;9100;48.700;9.316;2024-02-23T02:08:34;95885.29999999999;;;7.04;100
17950;BME280;9100;48.700;9.316;2024-02-23T02:09:19;95883.7;;;7.03;100
17950;BME280;9100;48.700;9.316;2024-02-23T02:10:19;95884.1;;;7;100
17950;BME280;9100;48.700;9.316;2024-02-23T02:11:19;95888.59999999999;;;6.98;100
17950;BME280;9100;48.700;9.316;2024-02-23T02:12:26;95890;;;6.94;100
17950;BME280;9100;48.700;9.316;2024-02-23T02:13:19;95896.40000000001;;;6.9;100
17950;BME280;9100;48.700;9.316;2024-02-23T02:13:34;95892.9;;;6.91;100
17950;BME280;9100;48.700;9.316;2024-02-23T02:14:19;95898.2;;;6.89;100
17950;BME280;9100;48.700;9.316;2024-02-23T02:15:19;95888.4;;;6.86;100
17950;BME280;9100;48.700;9.316;2024-02-23T02:16:19;95899.8;;;6.83;100
17950;BME280;9100;48.700;9.316;2024-02-23T02:17:19;95897;;;6.78;100
17950;BME280;9100;48.700;9.316;2024-02-23T02:18:19;95907.4;;;6.77;100
17950;BME280;9100;48.700;9.316;2024-02-23T02:18:34;95897.40000000001;;;6.75;100
17950;BME280;9100;48.700;9.316;2024-02-23T02:19:19;95902.70000000001;;;6.74;100
17950;BME280;9100;48.700;9.316;2024-02-23T02:20:19;95902.9;;;6.72;100
17950;BME280;9100;48.700;9.316;2024-02-23T02:21:19;95904.9;;;6.7;100
17950;BME280;9100;48.700;9.316;2024-02-23T02:22:19;95910.90000000001;;;6.69;100
17950;BME280;9100;48.700;9.316;2024-02-23T02:23:19;95905.2;;;6.67;100
17950;BME280;9100;48.700;9.316;2024-02-23T02:23:34;95910.29999999999;;;6.67;100
17950;BME280;9100;48.700;9.316;2024-02-23T02:24:19;95909.5;;;6.67;100
17950;BME280;9100;48.700;9.316;2024-02-23T02:25:19;95909.40000000001;;;6.68;100
17950;BME280;9100;48.700;9.316;2024-02-23T02:26:19;95899.8;;;6.7;100
17950;BME280;9100;48.700;9.316;2024-02-23T02:27:19;95894.7;;;6.7;100
17950;BME280;9100;48.700;9.316;2024-02-23T02:28:19;95903.3;;;6.69;100
17950;BME280;9100;48.700;9.316;2024-02-23T02:28:34;95903.7;;;6.66;100
17950;BME280;9100;48.700;9.316;2024-02-23T02:29:19;95908;;;6.66;100
17950;BME280;9100;48.700;9.316;2024-02-23T02:30:19;95907.2;;;6.65;100
17950;BME280;9100;48.700;9.316;2024-02-23T02:31:19;95908.2;;;6.64;100
17950;BME280;9100;48.700;9.316;2024-02-23T02:32:19;95909.7;;;6.59;100
17950;BME280;9100;48.700;9.316;2024-02-23T02:33:19;95900.2;;;6.54;100
17950;BME280;9100;48.700;9.316;2024-02-23T02:33:34;95902.70000000001;;;6.54;100
17950;BME280;9100;48.700;9.316;2024-02-23T02:34:19;95901;;;6.55;100
17950;BME280;9100;48.700;9.316;2024-02-23T02:35:19;95895.5;;;6.51;100
17950;BME280;9100;48.700;9.316;2024-02-23T02:36:19;95895.7;;;6.5;100
17950;BME280;9100;48.700;9.316;2024-02-23T02:37:19;95899.40000000001;;;6.47;100
17950;BME280;9100;48.700;9.316;2024-02-23T02:38:19;95903.3;;;6.43;100
17950;BME280;9100;48.700;9.316;2024-02-23T02:38:34;95905.2;;;6.41;100
17950;BME280;9100;48.700;9.316;2024-02-23T02:39:19;95900.40000000001;;;6.4;100
17950;BME280;9100;48.700;9.316;2024-02-23T02:40:19;95896.1;;;6.4;100
17950;BME280;9100;48.700;9.316;2024-02-23T02:41:19;95897.1;;;6.39;100
17950;BME280;9100;48.700;9.316;2024-02-23T02:42:19;95884.6;;;6.38;100
17950;BME280;9100;48.700;9.316;2024-02-23T02:43:19;95888.5;;;6.4;100
17950;BME280;9100;48.700;9.316;2024-02-23T02:43:34;95881.8;;;6.39;100
17950;BME280;9100;48.700;9.316;2024-02-23T02:44:19;95882.6;;;6.4;100
17950;BME280;9100;48.700;9.316;2024-02-23T02:45:19;95884.2;;;6.41;100
17950;BME280;9100;48.700;9.316;2024-02-23T02:46:19;95882.8;;;6.38;100
17950;BME280;9100;48.700;9.316;2024-02-23T02:47:19;95886.3;;;6.37;100
17950;BME280;9100;48.700;9.316;2024-02-23T02:48:19;95886.3;;;6.37;100
17950;BME280;9100;48.700;9.316;2024-02-23T02:48:34;95884.6;;;6.38;100
17950;BME280;9100;48.700;9.316;2024-02-23T02:49:19;95878.7;;;6.37;100
17950;BME280;9100;48.700;9.316;2024-02-23T02:50:19;95885.7;;;6.35;100
17950;BME280;9100;48.700;9.316;2024-02-23T02:51:19;95884.2;;;6.34;100
17950;BME280;9100;48.700;9.316;2024-02-23T02:52:19;95887.7;;;6.33;100
17950;BME280;9100;48.700;9.316;2024-02-23T02:53:19;95881.8;;;6.32;100
17950;BME280;9100;48.700;9.316;2024-02-23T02:53:34;95877;;;6.31;100
17950;BME280;9100;48.700;9.316;2024-02-23T02:54:19;95874.40000000001;;;6.31;100
17950;BME280;9100;48.700;9.316;2024-02-23T02:55:19;95875.59999999999;;;6.35;100
17950;BME280;9100;48.700;9.316;2024-02-23T02:56:19;95881.5;;;6.36;100
17950;BME280;9100;48.700;9.316;2024-02-23T02:57:19;95884;;;6.36;100
17950;BME280;9100;48.700;9.316;2024-02-23T02:58:19;95885.7;;;6.35;100
17950;BME280;9100;48.700;9.316;2024-02-23T02:58:34;95884;;;6.36;100
17950;BME280;9100;48.700;9.316;2024-02-23T02:59:19;95888.09999999999;;;6.37;100
17950;BME280;9100;48.700;9.316;2024-02-23T03:00:19;95889.8;;;6.36;100
17950;BME280;9100;48.700;9.316;2024-02-23T03:01:19;95890.59999999999;;;6.37;100
17950;BME280;9100;48.700;9.316;2024-02-23T03:02:19;95894.7;;;6.38;100
17950;BME280;9100;48.700;9.316;2024-02-23T03:03:19;95895.7;;;6.37;100
17950;BME280;9100;48.700;9.316;2024-02-23T03:03:34;95893.1;;;6.37;100
17950;BME280;9100;48.700;9.316;2024-02-23T03:04:19;95891.4;;;6.37;100
17950;BME280;9100;48.700;9.316;2024-02-23T03:05:19;95880.3;;;6.38;100
17950;BME280;9100;48.700;9.316;2024-02-23T03:06:19;95888.8;;;6.37;100
17950;BME280;9100;48.700;9.316;2024-02-23T03:07:19;95891.2;;;6.39;100
17950;BME280;9100;48.700;9.316;2024-02-23T03:08:19;95888.8;;;6.37;100
17950;BME280;9100;48.700;9.316;2024-02-23T03:08:34;95883;;;6.37;100
17950;BME280;9100;48.700;9.316;2024-02-23T03:09:19;95882.8;;;6.38;100
17950;BME280;9100;48.700;9.316;2024-02-23T03:10:19;95879.7;;;6.36;100
17950;BME280;9100;48.700;9.316;2024-02-23T03:11:19;95878.7;;;6.37;100
17950;BME280;9100;48.700;9.316;2024-02-23T03:12:19;95879.7;;;6.36;100
17950;BME280;9100;48.700;9.316;2024-02-23T03:13:19;95885.7;;;6.35;100
17950;BME280;9100;48.700;9.316;2024-02-23T03:13:34;95883;;;6.37;100
17950;BME280;9100;48.700;9.316;2024-02-23T03:14:19;95882.2;;;6.36;100
17950;BME280;9100;48.700;9.316;2024-02-23T03:15:19;95883;;;6.37;100
17950;BME280;9100;48.700;9.316;2024-02-23T03:16:20;95890.8;;;6.35;100
17950;BME280;9100;48.700;9.316;2024-02-23T03:17:19;95885.5;;;6.37;100
17950;BME280;9100;48.700;9.316;2024-02-23T03:18:19;95886.5;;;6.36;100
17950;BME280;9100;48.700;9.316;2024-02-23T03:18:34;95890;;;6.34;100
17950;BME280;9100;48.700;9.316;2024-02-23T03:19:19;95880.7;;;6.35;100
17950;BME280;9100;48.700;9.316;2024-02-23T03:20:19;95879.9;;;6.34;100
17950;BME280;9100;48.700;9.316;2024-02-23T03:21:19;95875.59999999999;;;6.35;100
17950;BME280;9100;48.700;9.316;2024-02-23T03:22:19;95872.1;;;6.36;100
17950;BME280;9100;48.700;9.316;2024-02-23T03:23:19;95878.7;;;6.37;100
17950;BME280;9100;48.700;9.316;2024-02-23T03:23:34;95872.1;;;6.36;100
17950;BME280;9100;48.700;9.316;2024-02-23T03:24:19;95873.6;;;6.37;100
17950;BME280;9100;48.700;9.316;2024-02-23T03:25:19;95882;;;6.38;100
17950;BME280;9100;48.700;9.316;2024-02-23T03:26:19;95895.3;;;6.4;100
17950;BME280;9100;48.700;9.316;2024-02-23T03:27:19;95891.8;;;6.41;100
17950;BME280;9100;48.700;9.316;2024-02-23T03:28:19;95885.29999999999;;;6.38;100
17950;BME280;9100;48.700;9.316;2024-02-23T03:28:34;95887.90000000001;;;6.38;100
17950;BME280;9100;48.700;9.316;2024-02-23T03:29:19;95887.90000000001;;;6.38;100
17950;BME280;9100;48.700;9.316;2024-02-23T03:30:19;95888.8;;;6.37;100
17950;BME280;9100;48.700;9.316;2024-02-23T03:31:19;95878.7;;;6.37;100
17950;BME280;9100;48.700;9.316;2024-02-23T03:32:19;95875.2;;;6.38;100
17950;BME280;9100;48.700;9.316;2024-02-23T03:33:19;95877.3;;;6.41;100
17950;BME280;9100;48.700;9.316;2024-02-23T03:33:34;95876.8;;;6.39;100
17950;BME280;9100;48.700;9.316;2024-02-23T03:34:19;95870.5;;;6.42;100
17950;BME280;9100;48.700;9.316;2024-02-23T03:35:19;95867.8;;;6.43;100
17950;BME280;9100;48.700;9.316;2024-02-23T03:36:19;95870.1;;;6.45;100
17950;BME280;9100;48.700;9.316;2024-02-23T03:37:19;95879.5;;;6.44;100
17950;BME280;9100;48.700;9.316;2024-02-23T03:38:19;95884;;;6.42;100
17950;BME280;9100;48.700;9.316;2024-02-23T03:38:34;95883.2;;;6.42;100
17950;BME280;9100;48.700;9.316;2024-02-23T03:39:19;95882.2;;;6.43;100
17950;BME280;9100;48.700;9.316;2024-02-23T03:40:19;95896.7;;;6.42;100
17950;BME280;9100;48.700;9.316;2024-02-23T03:41:19;95893.3;;;6.42;100
17950;BME280;9100;48.700;9.316;2024-02-23T03:42:19;95889.09999999999;;;6.42;100
17950;BME280;9100;48.700;9.316;2024-02-23T03:43:19;95891;;;6.4;100
17950;BME280;9100;48.700;9.316;2024-02-23T03:43:34;95749.5;;;5.5;100
17950;BME280;9100;48.700;9.316;2024-02-23T03:44:19;95890.8;;;6.42;100
17950;BME280;9100;48.700;9.316;2024-02-23T03:45:19;95893.2;;;6.43;100
17950;BME280;9100;48.700;9.316;2024-02-23T03:46:19;95902.3;;;6.44;100
17950;BME280;9100;48.700;9.316;2024-02-23T03:47:19;95900.8;;;6.43;100
17950;BME280;9100;48.700;9.316;2024-02-23T03:48:19;95913.5;;;6.43;100
17950;BME280;9100;48.700;9.316;2024-02-23T03:48:34;95908.4;;;6.43;100
17950;BME280;9100;48.700;9.316;2024-02-23T03:49:19;95917.5;;;6.44;100
17950;BME280;9100;48.700;9.316;2024-02-23T03:50:19;95907.4;;;6.44;100
17950;BME280;9100;48.700;9.316;2024-02-23T03:51:19;95917.4;;;6.46;100
17950;BME280;9100;48.700;9.316;2024-02-23T03:52:19;95919.9;;;6.46;100
17950;BME280;9100;48.700;9.316;2024-02-23T03:53:19;95927.70000000001;;;6.44;100
17950;BME280;9100;48.700;9.316;2024-02-23T03:53:34;95920.9;;;6.45;100
17950;BME280;9100;48.700;9.316;2024-02-23T03:54:19;95927.5;;;6.46;100
17950;BME280;9100;48.700;9.316;2024-02-23T03:55:19;95931.8;;;6.45;100
17950;BME280;9100;48.700;9.316;2024-02-23T03:56:19;95925.8;;;6.46;100
17950;BME280;9100;48.700;9.316;2024-02-23T03:57:19;95924;;;6.47;100
17950;BME280;9100;48.700;9.316;2024-02-23T03:58:19;95923.2;;;6.46;100
17950;BME280;9100;48.700;9.316;2024-02-23T03:58:34;95917.4;;;6.46;100
17950;BME280;9100;48.700;9.316;2024-02-23T04:02:51;95909;;;6.52;100
17950;BME280;9100;48.700;9.316;2024-02-23T04:03:19;95900.2;;;6.54;100
17950;BME280;9100;48.700;9.316;2024-02-23T04:03:35;95900.2;;;6.54;100
17950;BME280;9100;48.700;9.316;2024-02-23T04:04:19;95901.70000000001;;;6.55;100
17950;BME280;9100;48.700;9.316;2024-02-23T04:05:19;95903.3;;;6.56;100
17950;BME280;9100;48.700;9.316;2024-02-23T04:06:19;95904.9;;;6.57;100
17950;BME280;9100;48.700;9.316;2024-02-23T04:07:19;95918.1;;;6.59;100
17950;BME280;9100;48.700;9.316;2024-02-23T04:08:19;95919.1;;;6.58;100
17950;BME280;9100;48.700;9.316;2024-02-23T04:08:34;95921.7;;;6.58;100
17950;BME280;9100;48.700;9.316;2024-02-23T04:09:19;95929.9;;;6.6;100
17950;BME280;9100;48.700;9.316;2024-02-23T04:10:19;95927.9;;;6.62;100
17950;BME280;9100;48.700;9.316;2024-02-23T04:11:19;95921.1;;;6.63;100
17950;BME280;9100;48.700;9.316;2024-02-23T04:12:19;95916;;;6.63;100
17950;BME280;9100;48.700;9.316;2024-02-23T04:13:19;95920.3;;;6.62;100
17950;BME280;9100;48.700;9.316;2024-02-23T04:13:34;95923.6;;;6.63;100
17950;BME280;9100;48.700;9.316;2024-02-23T04:14:19;95923.8;;;6.61;100
17950;BME280;9100;48.700;9.316;2024-02-23T04:15:19;95927.09999999999;;;6.62;100
17950;BME280;9100;48.700;9.316;2024-02-23T04:16:22;95926.4;;;6.61;100
17950;BME280;9100;48.700;9.316;2024-02-23T04:17:19;95924.59999999999;;;6.62;100
17950;BME280;9100;48.700;9.316;2024-02-23T04:18:19;95914.4;;;6.55;100
17950;BME280;9100;48.700;9.316;2024-02-23T04:18:35;95922.90000000001;;;6.62;100
17950;BME280;9100;48.700;9.316;2024-02-23T04:19:19;95919.3;;;6.63;100
17950;BME280;9100;48.700;9.316;2024-02-23T04:20:19;95922.5;;;6.65;100
17950;BME280;9100;48.700;9.316;2024-02-23T04:21:19;95925.59999999999;;;6.67;100
17950;BME280;9100;48.700;9.316;2024-02-23T04:22:19;95926.2;;;6.69;100
17950;BME280;9100;48.700;9.316;2024-02-23T04:23:19;95925.59999999999;;;6.67;100
17950;BME280;9100;48.700;9.316;2024-02-23T04:23:34;95927.09999999999;;;6.68;100
17950;BME280;9100;48.700;9.316;2024-02-23T04:24:19;95933.8;;;6.69;100
17950;BME280;9100;48.700;9.316;2024-02-23T04:25:19;95923.6;;;6.69;100
17950;BME280;9100;48.700;9.316;2024-02-23T04:26:19;95921.90000000001;;;6.7;100
17950;BME280;9100;48.700;9.316;2024-02-23T04:27:19;95926.70000000001;;;6.71;100
17950;BME280;9100;48.700;9.316;2024-02-23T04:28:19;95919.9;;;6.72;100
17950;BME280;9100;48.700;9.316;2024-02-23T04:28:35;95925.8;;;6.72;100
17950;BME280;9100;48.700;9.316;2024-02-23T04:29:19;95927.3;;;6.73;100
17950;BME280;9100;48.700;9.316;2024-02-23T04:30:19;95930.5;;;6.75;100
17950;BME280;9100;48.700;9.316;2024-02-23T04:31:19;95928.7;;;6.76;100
17950;BME280;9100;48.700;9.316;2024-02-23T04:32:19;95920.9;;;6.77;100
17950;BME280;9100;48.700;9.316;2024-02-23T04:33:19;95916.6;;;6.78;100
17950;BME280;9100;48.700;9.316;2024-02-23T04:33:34;95910;;;6.77;100
17950;BME280;9100;48.700;9.316;2024-02-23T04:34:19;95918.1;;;6.79;100
17950;BME280;9100;48.700;9.316;2024-02-23T04:35:19;95908.8;;;6.79;100
17950;BME280;9100;48.700;9.316;2024-02-23T04:36:19;95908.8;;;6.79;100
17950;BME280;9100;48.700;9.316;2024-02-23T04:37:19;95915.4;;;6.8;100
17950;BME280;9100;48.700;9.316;2024-02-23T04:38:19;95912.09999999999;;;6.8;100
17950;BME280;9100;48.700;9.316;2024-02-23T04:38:34;95924;;;6.79;100
17950;BME280;9100;48.700;9.316;2024-02-23T04:39:19;95927.09999999999;;;6.81;100
17950;BME280;9100;48.700;9.316;2024-02-23T04:40:19;95933;;;6.82;100